Time;durP1;ratioP1;P1;durP2;ratioP2;P2;SDS_P1;SDS_P2;PMS_P1;PMS_P2;Temp;Humidity;BMP_temperature;BMP_pressure;BME280_temperature;BME280_humidity;BME280_pressure;Samples;Min_cycle;Max_cycle;Signal;HPM_P1;HPM_P2
2022/10/22 00:02:01;;;;;;;6.55;4.40;;;13.30;99.90;;;;;;5071585;28;20451;-67
2022/10/22 00:04:26;;;;;;;6.10;4.43;;;13.30;99.90;;;;;;5071498;28;20032;-67
2022/10/22 00:06:52;;;;;;;8.05;5.15;;;13.30;99.90;;;;;;5071440;28;20076;-67
2022/10/22 00:09:17;;;;;;;9.75;5.25;;;13.40;99.90;;;;;;5071679;28;20040;-67
2022/10/22 00:11:43;;;;;;;12.93;5.47;;;13.30;99.90;;;;;;5071286;28;20040;-67
2022/10/22 00:14:09;;;;;;;10.13;5.80;;;13.30;99.90;;;;;;5070985;28;20041;-67
2022/10/22 00:16:34;;;;;;;7.30;5.55;;;13.30;99.90;;;;;;5071342;28;20393;-67
2022/10/22 00:19:00;;;;;;;7.65;5.50;;;13.30;99.90;;;;;;5071501;28;20086;-67
2022/10/22 00:21:27;;;;;;;6.60;4.78;;;13.30;99.90;;;;;;5071519;28;20082;-67
2022/10/22 00:23:54;;;;;;;11.95;6.68;;;13.30;99.90;;;;;;5071015;28;20037;-67
2022/10/22 00:26:20;;;;;;;7.47;5.57;;;13.30;99.90;;;;;;5071506;28;20063;-67
2022/10/22 00:28:46;;;;;;;11.07;5.28;;;13.30;99.90;;;;;;5071285;28;20086;-67
2022/10/22 00:31:12;;;;;;;10.98;6.05;;;13.30;99.90;;;;;;5071594;28;20068;-67
2022/10/22 00:33:37;;;;;;;9.95;5.80;;;13.30;99.90;;;;;;5071342;28;20063;-67
2022/10/22 00:36:03;;;;;;;11.07;6.20;;;13.30;99.90;;;;;;5070994;28;20041;-67
2022/10/22 00:38:29;;;;;;;10.02;5.72;;;13.30;99.90;;;;;;5069852;28;20409;-67
2022/10/22 00:40:54;;;;;;;10.18;5.35;;;13.20;99.90;;;;;;5087213;28;20071;-67
2022/10/22 00:43:20;;;;;;;12.73;5.28;;;13.20;99.90;;;;;;5073520;28;20043;-67
2022/10/22 00:45:46;;;;;;;11.45;5.75;;;13.20;99.90;;;;;;5074642;28;20033;-67
2022/10/22 00:48:22;;;;;;;16.33;6.53;;;13.20;99.90;;;;;;5075061;28;20028;-67
2022/10/22 00:51:01;;;;;;;7.65;5.78;;;13.20;99.90;;;;;;5075069;28;20060;-67
2022/10/22 00:53:35;;;;;;;8.48;4.90;;;13.20;99.90;;;;;;5074797;28;20064;-67
2022/10/22 00:56:01;;;;;;;9.20;5.88;;;13.20;99.90;;;;;;5073143;28;20044;-67
2022/10/22 00:58:29;;;;;;;14.43;6.43;;;13.20;99.90;;;;;;5073175;28;20488;-67
2022/10/22 01:00:55;;;;;;;10.15;5.22;;;13.20;99.90;;;;;;5074844;28;20109;-67
2022/10/22 01:03:21;;;;;;;12.93;5.70;;;13.20;99.90;;;;;;5073667;28;20036;-67
2022/10/22 01:05:57;;;;;;;11.60;5.75;;;13.20;99.90;;;;;;5074526;28;20051;-67
2022/10/22 01:08:41;;;;;;;8.73;5.90;;;13.20;99.90;;;;;;5074498;28;20064;-67
2022/10/22 01:11:22;;;;;;;7.85;5.32;;;13.20;99.90;;;;;;5074218;28;20481;-67
2022/10/22 01:14:14;;;;;;;8.65;5.95;;;13.10;99.90;;;;;;5074441;28;20041;-67
2022/10/22 01:16:59;;;;;;;9.57;6.00;;;13.10;99.90;;;;;;5075258;28;20044;-67
2022/10/22 01:19:41;;;;;;;8.20;5.97;;;13.10;99.90;;;;;;5074413;28;20094;-67
2022/10/22 01:22:33;;;;;;;9.88;5.68;;;13.10;99.90;;;;;;5074078;28;20507;-67
2022/10/22 01:25:18;;;;;;;13.75;6.90;;;13.10;99.90;;;;;;5072691;28;20101;-67
2022/10/22 01:28:04;;;;;;;8.75;5.70;;;13.10;99.90;;;;;;5074214;28;20485;-67
2022/10/22 01:30:30;;;;;;;9.88;5.55;;;13.10;99.90;;;;;;5074226;28;20510;-67
2022/10/22 01:33:01;;;;;;;9.18;6.60;;;13.10;99.90;;;;;;5074285;28;20040;-67
2022/10/22 01:35:33;;;;;;;9.25;5.68;;;13.10;99.90;;;;;;5073695;28;20052;-67
2022/10/22 01:38:01;;;;;;;9.65;5.65;;;13.10;99.90;;;;;;5074277;28;20395;-67
2022/10/22 01:40:28;;;;;;;10.18;5.88;;;13.10;99.90;;;;;;5073855;28;20055;-67
2022/10/22 01:43:06;;;;;;;22.55;8.45;;;13.10;99.90;;;;;;5073905;28;20089;-67
2022/10/22 01:45:52;;;;;;;9.02;5.00;;;13.10;99.90;;;;;;5072007;28;20052;-67
2022/10/22 01:48:37;;;;;;;8.45;5.53;;;13.10;99.90;;;;;;5074122;28;20080;-67
2022/10/22 01:51:37;;;;;;;7.82;5.28;;;13.10;99.90;;;;;;5072385;28;20047;-67
2022/10/22 01:54:20;;;;;;;9.63;5.90;;;13.00;99.90;;;;;;5073330;28;20040;-67
2022/10/22 01:57:06;;;;;;;8.13;4.95;;;13.00;99.90;;;;;;5073485;28;20115;-67
2022/10/22 01:59:39;;;;;;;8.88;5.20;;;13.00;99.90;;;;;;5072309;28;20489;-67
2022/10/22 02:02:16;;;;;;;9.85;5.43;;;13.00;99.90;;;;;;5073540;28;20120;-67
2022/10/22 02:04:49;;;;;;;9.75;5.22;;;13.00;99.90;;;;;;5072151;28;20052;-67
2022/10/22 02:07:18;;;;;;;12.80;5.63;;;13.00;99.90;;;;;;5073347;28;20493;-67
2022/10/22 02:09:44;;;;;;;8.50;5.70;;;13.00;99.90;;;;;;5073557;28;20063;-67
2022/10/22 02:12:11;;;;;;;8.80;5.35;;;13.00;99.90;;;;;;5073323;28;20404;-67
2022/10/22 02:14:42;;;;;;;7.40;5.10;;;13.00;99.90;;;;;;5073326;28;20119;-67
2022/10/22 02:17:12;;;;;;;9.35;5.28;;;13.00;99.90;;;;;;5073297;28;20405;-67
2022/10/22 02:19:45;;;;;;;8.10;5.57;;;13.00;99.90;;;;;;5071938;28;20048;-67
2022/10/22 02:22:10;;;;;;;9.52;5.20;;;13.00;99.90;;;;;;5073355;28;20396;-67
2022/10/22 02:24:36;;;;;;;8.80;5.45;;;13.00;99.90;;;;;;5072768;28;20111;-67
2022/10/22 02:27:20;;;;;;;9.90;5.88;;;13.00;99.90;;;;;;5072010;28;20477;-67
2022/10/22 02:30:16;;;;;;;6.90;5.50;;;13.00;99.90;;;;;;5073143;28;20040;-67
2022/10/22 02:33:07;;;;;;;9.13;5.70;;;12.90;99.90;;;;;;5072965;28;20500;-67
2022/10/22 02:35:34;;;;;;;10.48;5.78;;;13.00;99.90;;;;;;5072787;28;20048;-67
2022/10/22 02:38:00;;;;;;;10.60;5.78;;;12.90;99.90;;;;;;5071863;28;20409;-67
2022/10/22 02:40:29;;;;;;;9.55;5.63;;;12.90;99.90;;;;;;5072495;28;20044;-67
2022/10/22 02:42:54;;;;;;;10.27;6.10;;;12.90;99.90;;;;;;5071464;28;20508;-67
2022/10/22 02:45:20;;;;;;;10.75;6.13;;;12.90;99.90;;;;;;5071028;28;20041;-67
2022/10/22 02:47:47;;;;;;;9.68;5.40;;;12.90;99.90;;;;;;5072633;28;20044;-67
2022/10/22 02:50:13;;;;;;;12.80;6.22;;;12.90;99.90;;;;;;5072376;28;20056;-67
2022/10/22 02:52:39;;;;;;;7.32;5.65;;;12.90;99.90;;;;;;5071384;28;20037;-67
2022/10/22 02:55:05;;;;;;;7.85;5.57;;;12.80;99.90;;;;;;5072116;28;20128;-67
2022/10/22 02:57:31;;;;;;;10.60;5.65;;;12.80;99.90;;;;;;5072265;28;20043;-67
2022/10/22 02:59:57;;;;;;;12.02;6.75;;;12.80;99.90;;;;;;5071007;28;20093;-67
2022/10/22 03:02:23;;;;;;;9.57;6.32;;;12.80;99.90;;;;;;5070950;28;20044;-67
2022/10/22 03:04:48;;;;;;;10.20;6.25;;;12.90;99.90;;;;;;5069951;28;20045;-67
2022/10/22 03:07:14;;;;;;;8.45;6.97;;;12.80;99.90;;;;;;5070842;28;20089;-67
2022/10/22 03:09:39;;;;;;;9.20;5.88;;;12.80;99.90;;;;;;5072471;28;20481;-67
2022/10/22 03:12:07;;;;;;;10.80;6.13;;;12.80;99.90;;;;;;5071979;28;20056;-67
2022/10/22 03:14:33;;;;;;;14.07;6.30;;;12.80;99.90;;;;;;5070633;28;20047;-67
2022/10/22 03:16:59;;;;;;;15.57;5.70;;;12.80;99.90;;;;;;5070973;28;20391;-67
2022/10/22 03:19:24;;;;;;;9.48;6.80;;;12.80;99.90;;;;;;5070906;28;20040;-67
2022/10/22 03:21:58;;;;;;;10.25;6.38;;;12.80;99.90;;;;;;5070818;28;20076;-67
2022/10/22 03:24:28;;;;;;;9.93;6.30;;;12.80;99.90;;;;;;5071868;28;20055;-67
2022/10/22 03:26:54;;;;;;;9.98;6.40;;;12.80;99.90;;;;;;5072152;28;20093;-67
2022/10/22 03:29:22;;;;;;;8.98;6.65;;;12.70;99.90;;;;;;5070525;28;20048;-67
2022/10/22 03:31:47;;;;;;;9.70;6.43;;;12.70;99.90;;;;;;5070670;28;20035;-67
2022/10/22 03:34:13;;;;;;;12.50;6.55;;;12.70;99.90;;;;;;5071675;28;20040;-67
2022/10/22 03:36:40;;;;;;;12.13;5.72;;;12.70;99.90;;;;;;5072103;28;20032;-67
2022/10/22 03:39:07;;;;;;;9.52;6.45;;;12.70;99.90;;;;;;5070329;28;20051;-67
2022/10/22 03:41:34;;;;;;;9.13;6.07;;;12.70;99.90;;;;;;5072048;28;20051;-67
2022/10/22 03:44:01;;;;;;;9.85;6.28;;;12.70;99.90;;;;;;5071419;28;20111;-67
2022/10/22 03:46:27;;;;;;;11.18;6.75;;;12.70;99.90;;;;;;5070217;28;20111;-67
2022/10/22 03:48:53;;;;;;;13.00;7.10;;;12.70;99.90;;;;;;5071764;28;20103;-67
2022/10/22 03:51:18;;;;;;;12.98;6.68;;;12.70;99.90;;;;;;5070322;28;20041;-67
2022/10/22 03:53:44;;;;;;;11.38;6.50;;;12.70;99.90;;;;;;5071394;28;20500;-67
2022/10/22 03:56:11;;;;;;;10.48;6.22;;;12.70;99.90;;;;;;5070074;28;20489;-67
2022/10/22 03:58:38;;;;;;;15.20;6.65;;;12.80;99.90;;;;;;5071337;28;20055;-67
2022/10/22 04:01:05;;;;;;;12.98;7.10;;;12.70;99.90;;;;;;5070150;28;20044;-67
2022/10/22 04:03:31;;;;;;;8.20;6.43;;;12.70;99.90;;;;;;5071761;28;20072;-67
2022/10/22 04:06:02;;;;;;;12.15;6.55;;;12.80;99.90;;;;;;5069860;28;20072;-67
2022/10/22 04:08:28;;;;;;;10.55;6.60;;;12.70;99.90;;;;;;5070189;28;20048;-67
2022/10/22 04:10:53;;;;;;;12.15;6.00;;;12.70;99.90;;;;;;5070269;28;20055;-67
2022/10/22 04:13:19;;;;;;;8.57;6.10;;;12.70;99.90;;;;;;5071328;28;20086;-67
2022/10/22 04:15:44;;;;;;;10.35;6.38;;;12.70;99.90;;;;;;5071885;28;20052;-67
2022/10/22 04:18:10;;;;;;;10.27;6.63;;;12.70;99.90;;;;;;5074110;28;20070;-67
2022/10/22 04:20:35;;;;;;;12.55;6.90;;;12.70;99.90;;;;;;5075524;28;20068;-67
2022/10/22 04:23:01;;;;;;;9.63;6.45;;;12.70;99.90;;;;;;5075568;28;20040;-67
2022/10/22 04:25:26;;;;;;;9.60;6.07;;;12.70;99.90;;;;;;5075061;28;20127;-67
2022/10/22 04:27:52;;;;;;;11.13;6.53;;;12.70;99.90;;;;;;5057126;28;20119;-67
2022/10/22 04:30:17;;;;;;;8.93;6.20;;;12.70;99.90;;;;;;5075232;28;20148;-67
2022/10/22 04:32:43;;;;;;;13.48;7.35;;;12.70;99.90;;;;;;5074167;28;20043;-67
2022/10/22 04:35:08;;;;;;;15.50;7.28;;;12.60;99.90;;;;;;5073471;28;20119;-67
2022/10/22 04:37:34;;;;;;;14.73;6.32;;;12.60;99.90;;;;;;5075265;28;20109;-67
2022/10/22 04:40:00;;;;;;;11.82;6.97;;;12.60;99.90;;;;;;5073737;28;20418;-67
2022/10/22 04:42:25;;;;;;;11.25;6.57;;;12.60;99.90;;;;;;5075328;28;20404;-67
2022/10/22 04:44:51;;;;;;;8.45;6.43;;;12.60;99.90;;;;;;5074887;28;20032;-67
2022/10/22 04:47:16;;;;;;;10.73;6.38;;;12.60;99.90;;;;;;5074924;28;20079;-67
2022/10/22 04:49:42;;;;;;;10.77;6.55;;;12.60;99.90;;;;;;5074751;28;20044;-67
2022/10/22 04:52:07;;;;;;;11.18;6.32;;;12.50;99.90;;;;;;5074968;28;20041;-67
2022/10/22 04:54:33;;;;;;;8.40;6.38;;;12.50;99.90;;;;;;5074490;28;20036;-67
2022/10/22 04:56:58;;;;;;;11.02;5.97;;;12.50;99.90;;;;;;5074616;28;20040;-67
2022/10/22 04:59:24;;;;;;;10.43;6.03;;;12.50;99.90;;;;;;5074674;28;20071;-67
2022/10/22 05:01:50;;;;;;;9.95;6.38;;;12.50;99.90;;;;;;5074609;28;20028;-67
2022/10/22 05:04:18;;;;;;;12.32;6.28;;;12.50;99.90;;;;;;5074432;28;20106;-67
2022/10/22 05:06:44;;;;;;;12.35;7.85;;;12.50;99.90;;;;;;5074478;28;20162;-67
2022/10/22 05:09:16;;;;;;;11.77;6.45;;;12.60;99.90;;;;;;5073452;28;20047;-67
2022/10/22 05:11:47;;;;;;;14.07;7.23;;;12.50;99.90;;;;;;5074699;28;20041;-67
2022/10/22 05:14:15;;;;;;;15.10;7.65;;;12.60;99.90;;;;;;5074484;28;20040;-67
2022/10/22 05:16:40;;;;;;;13.35;7.10;;;12.60;99.90;;;;;;5074544;28;20047;-67
2022/10/22 05:19:07;;;;;;;15.40;7.18;;;12.60;99.90;;;;;;5074285;28;20049;-67
2022/10/22 05:21:33;;;;;;;13.15;6.90;;;12.60;99.90;;;;;;5074399;28;20396;-67
2022/10/22 05:23:59;;;;;;;11.70;6.57;;;12.60;99.90;;;;;;5073944;28;20075;-67
2022/10/22 05:26:25;;;;;;;8.82;6.00;;;12.60;99.90;;;;;;5073837;28;20533;-67
2022/10/22 05:28:52;;;;;;;12.90;7.07;;;12.60;99.90;;;;;;5073985;28;20397;-67
2022/10/22 05:31:18;;;;;;;11.45;7.45;;;12.60;99.90;;;;;;5074467;28;20121;-67
2022/10/22 05:33:44;;;;;;;12.98;7.25;;;12.60;99.90;;;;;;5073922;28;20315;-67
2022/10/22 05:36:12;;;;;;;12.13;6.70;;;12.70;99.90;;;;;;5072698;28;20162;-67
2022/10/22 05:38:38;;;;;;;15.57;6.55;;;12.70;99.90;;;;;;5072546;28;20044;-67
2022/10/22 05:41:12;;;;;;;12.85;6.68;;;12.70;99.90;;;;;;5074160;28;20040;-67
2022/10/22 05:43:38;;;;;;;18.25;6.55;;;12.70;99.90;;;;;;5072905;28;20040;-67
2022/10/22 05:46:07;;;;;;;11.07;6.65;;;12.70;99.90;;;;;;5073567;28;20087;-67
2022/10/22 05:48:34;;;;;;;17.70;7.30;;;12.70;99.90;;;;;;5074071;28;20047;-67
2022/10/22 05:51:05;;;;;;;17.55;7.20;;;12.70;99.90;;;;;;5073619;28;20048;-67
2022/10/22 05:53:32;;;;;;;19.02;7.22;;;12.70;99.90;;;;;;5073847;28;20036;-67
2022/10/22 05:56:02;;;;;;;11.13;5.97;;;12.70;99.90;;;;;;5073626;28;20423;-67
2022/10/22 05:58:28;;;;;;;13.98;6.68;;;12.70;99.90;;;;;;5073831;28;20047;-67
2022/10/22 06:00:54;;;;;;;17.63;6.53;;;12.70;99.90;;;;;;5073564;28;20044;-67
2022/10/22 06:03:19;;;;;;;12.70;6.45;;;12.70;99.90;;;;;;5073674;28;20458;-67
2022/10/22 06:05:45;;;;;;;12.57;7.00;;;12.80;99.90;;;;;;5071936;28;20090;-67
2022/10/22 06:08:13;;;;;;;12.20;6.55;;;12.80;99.90;;;;;;5072500;28;20089;-67
2022/10/22 06:10:42;;;;;;;14.38;6.38;;;12.80;99.90;;;;;;5072363;28;20446;-68
2022/10/22 06:13:07;;;;;;;14.40;5.82;;;12.80;99.90;;;;;;5068775;28;20044;-67
2022/10/22 06:15:33;;;;;;;9.95;7.00;;;12.80;99.90;;;;;;5069425;28;20044;-67
2022/10/22 06:17:59;;;;;;;20.63;8.27;;;12.80;99.90;;;;;;5071633;28;20153;-67
2022/10/22 06:20:25;;;;;;;16.10;6.95;;;12.80;99.90;;;;;;5072616;28;20040;-67
2022/10/22 06:22:50;;;;;;;17.15;9.07;;;12.80;99.90;;;;;;5072163;28;20040;-67
2022/10/22 06:25:16;;;;;;;16.13;6.70;;;12.80;99.90;;;;;;5071843;28;20089;-67
2022/10/22 06:27:42;;;;;;;16.05;6.47;;;12.90;99.90;;;;;;5073181;28;20090;-67
2022/10/22 06:30:08;;;;;;;13.48;6.55;;;12.90;99.90;;;;;;5073433;28;20071;-67
2022/10/22 06:32:33;;;;;;;14.13;7.45;;;12.90;99.90;;;;;;5072982;28;20568;-67
2022/10/22 06:34:59;;;;;;;11.10;6.47;;;12.90;99.90;;;;;;5071517;28;20131;-67
2022/10/22 06:37:24;;;;;;;11.73;7.00;;;12.90;99.90;;;;;;5073010;28;20036;-67
2022/10/22 06:39:50;;;;;;;13.95;7.05;;;12.90;99.90;;;;;;5069830;28;20110;-67
2022/10/22 06:42:15;;;;;;;13.35;6.38;;;12.90;99.90;;;;;;5072723;28;20036;-67
2022/10/22 06:44:41;;;;;;;16.20;6.85;;;12.90;99.90;;;;;;5072603;28;20029;-67
2022/10/22 06:47:06;;;;;;;14.80;6.95;;;12.90;99.90;;;;;;5072655;28;20036;-67
2022/10/22 06:49:32;;;;;;;10.98;6.20;;;12.90;99.90;;;;;;5072627;28;20437;-67
2022/10/22 06:51:57;;;;;;;10.88;6.10;;;13.00;99.90;;;;;;5072784;28;20036;-67
2022/10/22 06:54:23;;;;;;;11.50;6.50;;;13.00;99.90;;;;;;5072529;28;20404;-67
2022/10/22 06:56:49;;;;;;;12.50;6.47;;;13.00;99.90;;;;;;5072361;28;20396;-67
2022/10/22 06:59:16;;;;;;;12.73;6.78;;;13.00;99.90;;;;;;5072398;28;20132;-67
2022/10/22 07:01:42;;;;;;;15.00;6.22;;;13.00;99.90;;;;;;5072291;28;20476;-67
2022/10/22 07:04:09;;;;;;;17.27;5.85;;;13.10;99.90;;;;;;5072062;28;20043;-67
2022/10/22 07:06:35;;;;;;;10.23;6.28;;;13.10;99.90;;;;;;5071166;28;20044;-67
2022/10/22 07:09:01;;;;;;;11.48;6.03;;;13.10;99.90;;;;;;5072475;28;20044;-68
2022/10/22 07:11:41;;;;;;;16.38;7.00;;;13.10;99.90;;;;;;5072328;28;20040;-67
2022/10/22 07:14:07;;;;;;;9.65;6.03;;;13.10;99.90;;;;;;5072332;28;20041;-67
2022/10/22 07:16:33;;;;;;;16.88;6.20;;;13.10;99.90;;;;;;5072027;28;20047;-67
2022/10/22 07:19:00;;;;;;;12.93;5.68;;;13.20;99.90;;;;;;5071976;28;20049;-67
2022/10/22 07:21:26;;;;;;;9.57;5.95;;;13.20;99.90;;;;;;5072053;28;20549;-67
2022/10/22 07:23:52;;;;;;;12.30;5.78;;;13.20;99.90;;;;;;5071729;28;20044;-67
2022/10/22 07:26:19;;;;;;;14.13;6.53;;;13.30;99.90;;;;;;5070757;28;20041;-67
2022/10/22 07:28:45;;;;;;;11.85;6.15;;;13.30;99.90;;;;;;5070589;28;20045;-67
2022/10/22 07:31:13;;;;;;;12.65;7.65;;;13.30;99.90;;;;;;5071920;28;20028;-71
2022/10/22 07:33:39;;;;;;;11.88;5.97;;;13.30;99.90;;;;;;5070714;28;20105;-70
2022/10/22 07:36:09;;;;;;;13.07;6.43;;;13.40;99.90;;;;;;5071764;28;20036;-70
2022/10/22 07:38:35;;;;;;;19.75;7.00;;;13.40;99.90;;;;;;5070834;28;20136;-70
2022/10/22 07:41:00;;;;;;;15.20;6.65;;;13.50;99.90;;;;;;5070505;28;20064;-70
2022/10/22 07:43:26;;;;;;;12.75;6.57;;;13.50;99.90;;;;;;5071892;28;20067;-70
2022/10/22 07:45:51;;;;;;;11.75;6.22;;;13.50;99.90;;;;;;5071631;28;20099;-70
2022/10/22 07:48:17;;;;;;;8.25;5.97;;;13.50;99.90;;;;;;5070768;28;20041;-69
2022/10/22 07:50:43;;;;;;;12.50;6.50;;;13.50;99.90;;;;;;5071593;28;20040;-70
2022/10/22 07:53:09;;;;;;;10.63;5.95;;;13.50;99.90;;;;;;5053808;28;20489;-69
2022/10/22 07:55:35;;;;;;;12.15;6.32;;;13.50;99.90;;;;;;5070010;28;20448;-69
2022/10/22 07:58:01;;;;;;;10.93;5.53;;;13.60;99.90;;;;;;5070682;28;20101;-70
2022/10/22 08:00:26;;;;;;;18.60;5.80;;;13.60;99.90;;;;;;5053420;28;20045;-70
2022/10/22 08:02:52;;;;;;;13.02;6.75;;;13.60;99.90;;;;;;5071855;28;20048;-70
2022/10/22 08:05:18;;;;;;;14.02;5.75;;;13.60;99.90;;;;;;5071411;28;20045;-70
2022/10/22 08:07:43;;;;;;;9.90;5.82;;;13.60;99.90;;;;;;5071497;28;20044;-69
2022/10/22 08:10:10;;;;;;;11.00;4.95;;;13.60;99.90;;;;;;5053619;28;20504;-70
2022/10/22 08:12:36;;;;;;;12.48;5.88;;;13.50;99.90;;;;;;5070171;28;20036;-70
2022/10/22 08:15:02;;;;;;;10.38;5.50;;;13.60;99.90;;;;;;5070105;28;20048;-70
2022/10/22 08:17:28;;;;;;;9.55;5.53;;;13.50;99.90;;;;;;5071356;28;20063;-69
2022/10/22 08:19:53;;;;;;;15.68;5.60;;;13.60;99.90;;;;;;5070310;28;20044;-70
2022/10/22 08:22:19;;;;;;;11.63;5.32;;;13.50;99.90;;;;;;5071446;28;20040;-70
2022/10/22 08:24:45;;;;;;;11.10;5.22;;;13.50;99.90;;;;;;5069932;28;20067;-70
2022/10/22 08:27:11;;;;;;;9.23;5.20;;;13.60;99.90;;;;;;5071582;28;20044;-70
2022/10/22 08:29:36;;;;;;;10.85;5.70;;;13.60;99.90;;;;;;5070005;28;20041;-69
2022/10/22 08:32:02;;;;;;;13.15;5.60;;;13.60;99.90;;;;;;5070115;28;20162;-70
2022/10/22 08:34:29;;;;;;;13.23;5.03;;;13.60;99.90;;;;;;5069754;28;20081;-70
2022/10/22 08:36:54;;;;;;;15.80;5.88;;;13.70;99.90;;;;;;5053326;28;20120;-70
2022/10/22 08:39:20;;;;;;;12.95;5.63;;;13.70;99.90;;;;;;5069876;28;20175;-70
2022/10/22 08:42:03;;;;;;;7.68;4.70;;;13.70;99.90;;;;;;5070241;28;20039;-69
2022/10/22 08:45:00;;;;;;;20.40;5.53;;;13.80;99.90;;;;;;5069378;28;20045;-68
2022/10/22 08:47:35;;;;;;;7.90;5.10;;;14.00;99.90;;;;;;5070104;28;20420;-71
2022/10/22 08:50:01;;;;;;;14.68;5.50;;;14.10;99.90;;;;;;5051228;28;20055;-71
2022/10/22 08:52:27;;;;;;;12.52;4.82;;;14.20;99.90;;;;;;5069504;28;20044;-72
2022/10/22 08:54:58;;;;;;;16.00;4.88;;;14.20;99.90;;;;;;5068843;28;20032;-71
2022/10/22 08:57:50;;;;;;;14.98;4.88;;;14.30;99.90;;;;;;5069691;28;20040;-71
2022/10/22 09:00:20;;;;;;;8.27;4.32;;;14.40;99.90;;;;;;5068792;28;20098;-71
2022/10/22 09:02:58;;;;;;;13.68;4.80;;;14.40;99.90;;;;;;5069150;28;20699;-71
2022/10/22 09:05:42;;;;;;;9.13;3.78;;;14.40;99.90;;;;;;5056404;28;20047;-71
2022/10/22 09:08:13;;;;;;;15.57;4.95;;;14.50;99.90;;;;;;5073446;28;20086;-71
2022/10/22 09:10:47;;;;;;;15.55;4.63;;;14.60;99.90;;;;;;5073186;28;20044;-71
2022/10/22 09:13:16;;;;;;;7.30;3.63;;;14.60;99.90;;;;;;5073449;28;20087;-71
2022/10/22 09:15:44;;;;;;;8.57;3.88;;;14.70;99.90;;;;;;5074422;28;20037;-71
2022/10/22 09:18:31;;;;;;;12.80;4.28;;;14.70;99.90;;;;;;5073003;28;20043;-72
2022/10/22 09:21:22;;;;;;;17.38;4.05;;;14.80;99.90;;;;;;5073204;28;20432;-72
2022/10/22 09:24:14;;;;;;;9.90;3.83;;;14.90;99.90;;;;;;5072858;28;20036;-70
2022/10/22 09:26:40;;;;;;;12.55;4.10;;;14.90;99.90;;;;;;5074433;28;20033;-73
2022/10/22 09:29:12;;;;;;;6.18;3.67;;;15.00;99.90;;;;;;5072783;28;20404;-71
2022/10/22 09:31:38;;;;;;;12.93;3.90;;;15.10;99.90;;;;;;5074589;28;20408;-72
2022/10/22 09:34:06;;;;;;;6.53;2.90;;;15.10;99.90;;;;;;5072558;28;20044;-72
2022/10/22 09:36:36;;;;;;;9.68;3.00;;;15.20;99.90;;;;;;5072995;28;20044;-73
2022/10/22 09:39:03;;;;;;;13.63;4.65;;;15.30;99.90;;;;;;5073883;28;20048;-68
2022/10/22 09:41:29;;;;;;;6.00;2.97;;;15.40;99.90;;;;;;5074050;28;20040;-67
2022/10/22 09:43:55;;;;;;;7.32;3.13;;;15.20;99.90;;;;;;5074047;28;20047;-68
2022/10/22 09:46:27;;;;;;;7.20;3.60;;;15.20;99.90;;;;;;5072752;28;20488;-67
2022/10/22 09:49:09;;;;;;;8.23;3.80;;;15.10;99.90;;;;;;5074340;28;20036;-67
2022/10/22 09:51:56;;;;;;;10.48;3.00;;;15.00;99.90;;;;;;5074407;28;20044;-67
2022/10/22 09:54:36;;;;;;;9.07;2.97;;;15.00;99.90;;;;;;5073800;28;20120;-67
2022/10/22 09:57:15;;;;;;;7.85;3.25;;;15.00;99.90;;;;;;5074012;28;20033;-68
2022/10/22 09:59:42;;;;;;;10.98;2.92;;;15.00;99.90;;;;;;5072456;28;20041;-68
2022/10/22 10:02:07;;;;;;;11.13;2.85;;;14.90;99.90;;;;;;5074045;28;20119;-67
2022/10/22 10:04:39;;;;;;;7.57;2.70;;;15.00;99.90;;;;;;5073420;28;20068;-68
2022/10/22 10:07:15;;;;;;;11.50;3.22;;;14.90;99.90;;;;;;5074019;28;20093;-68
2022/10/22 10:09:41;;;;;;;11.75;3.17;;;14.90;99.90;;;;;;5074064;28;20048;-68
2022/10/22 10:12:23;;;;;;;10.65;3.15;;;15.00;99.90;;;;;;5073391;28;20063;-68
2022/10/22 10:14:56;;;;;;;12.82;5.60;;;15.00;99.90;;;;;;5073065;28;20036;-68
2022/10/22 10:17:35;;;;;;;10.32;6.22;;;15.00;99.90;;;;;;5073391;28;20033;-68
2022/10/22 10:20:27;;;;;;;9.55;2.83;;;14.90;99.90;;;;;;5073483;28;20045;-68
2022/10/22 10:23:20;;;;;;;15.87;6.20;;;14.90;99.90;;;;;;5073604;28;20055;-68
2022/10/22 10:26:03;;;;;;;8.63;5.00;;;15.00;99.90;;;;;;5071719;28;20048;-67
2022/10/22 10:28:41;;;;;;;9.00;3.50;;;15.00;99.90;;;;;;5072976;28;20075;-67
2022/10/22 10:31:31;;;;;;;9.77;3.47;;;15.00;99.90;;;;;;5072257;28;20044;-68
2022/10/22 10:34:40;;;;;;;17.70;9.48;;;15.00;99.90;;;;;;5072901;28;20036;-68
2022/10/22 10:37:26;;;;;;;21.65;12.10;;;15.00;99.90;;;;;;5072308;28;20044;-68
2022/10/22 10:40:04;;;;;;;13.23;6.13;;;15.10;99.90;;;;;;5073227;28;20040;-67
2022/10/22 10:42:53;;;;;;;23.63;14.13;;;15.10;99.90;;;;;;5073065;28;20078;-68
2022/10/22 10:45:35;;;;;;;18.83;11.15;;;15.10;99.90;;;;;;5072862;28;20043;-68
2022/10/22 10:48:31;;;;;;;43.30;26.77;;;15.10;99.90;;;;;;5073009;28;20048;-68
2022/10/22 10:51:04;;;;;;;27.30;16.58;;;15.10;99.90;;;;;;5072832;28;20084;-68
2022/10/22 10:53:52;;;;;;;18.60;11.07;;;15.20;99.90;;;;;;5073081;28;20044;-68
2022/10/22 10:56:40;;;;;;;14.18;6.45;;;15.20;99.90;;;;;;5073001;28;20043;-68
2022/10/22 10:59:42;;;;;;;7.00;4.72;;;15.20;99.90;;;;;;5072455;28;20036;-68
2022/10/22 11:02:33;;;;;;;8.95;5.75;;;15.30;99.90;;;;;;5072510;28;20573;-68
2022/10/22 11:05:22;;;;;;;13.98;8.00;;;15.20;99.90;;;;;;5072224;28;20052;-68
2022/10/22 11:08:00;;;;;;;20.02;10.93;;;15.20;99.90;;;;;;5072533;28;20037;-68
2022/10/22 11:10:39;;;;;;;15.05;9.18;;;15.30;99.90;;;;;;5071347;28;20048;-67
2022/10/22 11:13:27;;;;;;;22.23;10.30;;;15.20;99.90;;;;;;5071072;28;20084;-67
2022/10/22 11:16:15;;;;;;;10.90;5.40;;;15.20;99.90;;;;;;5072219;28;20040;-67
2022/10/22 11:18:47;;;;;;;12.35;7.30;;;15.20;99.90;;;;;;5072378;28;20076;-67
2022/10/22 11:21:24;;;;;;;27.23;9.65;;;15.20;99.90;;;;;;5072420;28;20397;-67
2022/10/22 11:23:59;;;;;;;17.25;8.55;;;15.30;99.90;;;;;;5072256;28;20447;-67
2022/10/22 11:26:43;;;;;;;13.30;6.55;;;15.30;99.90;;;;;;5071643;28;20041;-68
2022/10/22 11:29:16;;;;;;;11.73;4.65;;;15.30;99.90;;;;;;5071947;28;20102;-68
2022/10/22 11:31:43;;;;;;;11.95;5.07;;;15.30;99.90;;;;;;5072206;28;20040;-68
2022/10/22 11:34:31;;;;;;;9.35;4.50;;;15.30;99.90;;;;;;5070520;28;20128;-67
2022/10/22 11:36:58;;;;;;;13.48;4.15;;;15.30;99.90;;;;;;5071905;28;20115;-68
2022/10/22 11:39:52;;;;;;;12.55;6.00;;;15.30;99.90;;;;;;5071891;28;20501;-68
2022/10/22 11:42:33;;;;;;;7.88;4.85;;;15.30;99.90;;;;;;5071873;28;20047;-68
2022/10/22 11:45:03;;;;;;;13.13;6.13;;;15.30;99.90;;;;;;5070354;28;20489;-68
2022/10/22 11:47:34;;;;;;;10.18;5.05;;;15.30;99.90;;;;;;5072295;28;20036;-68
2022/10/22 11:50:19;;;;;;;13.32;6.05;;;15.40;99.90;;;;;;5072115;28;20040;-68
2022/10/22 11:53:15;;;;;;;8.30;5.35;;;15.40;99.90;;;;;;5071760;28;20496;-67
2022/10/22 11:55:44;;;;;;;13.32;4.82;;;15.40;99.90;;;;;;5071554;28;20044;-67
2022/10/22 11:58:26;;;;;;;12.10;5.65;;;15.40;99.90;;;;;;5070636;28;20397;-67
2022/10/22 12:00:53;;;;;;;10.18;5.43;;;15.40;99.90;;;;;;5072035;28;20424;-68
2022/10/22 12:03:31;;;;;;;7.50;4.93;;;15.40;99.90;;;;;;5070329;28;20043;-68
2022/10/22 12:06:10;;;;;;;11.70;5.15;;;15.50;99.90;;;;;;5070133;28;20047;-67
2022/10/22 12:08:45;;;;;;;8.52;5.70;;;15.50;99.90;;;;;;5070225;28;20044;-68
2022/10/22 12:11:11;;;;;;;13.60;5.43;;;15.60;99.90;;;;;;5071790;28;20048;-68
2022/10/22 12:14:07;;;;;;;6.03;4.57;;;15.60;99.90;;;;;;5070490;28;20044;-68
2022/10/22 12:16:37;;;;;;;8.07;5.63;;;15.70;99.90;;;;;;5071910;28;20043;-68
2022/10/22 12:19:14;;;;;;;13.80;4.75;;;15.70;99.90;;;;;;5071331;28;20041;-68
2022/10/22 12:21:44;;;;;;;13.98;5.38;;;15.70;99.90;;;;;;5070419;28;20037;-67
2022/10/22 12:24:16;;;;;;;10.27;5.13;;;15.70;99.90;;;;;;5053168;28;20049;-68
2022/10/22 12:26:44;;;;;;;14.32;5.45;;;15.80;99.90;;;;;;5070150;28;20115;-68
2022/10/22 12:29:12;;;;;;;9.70;4.35;;;15.80;99.90;;;;;;5070719;28;20048;-68
2022/10/22 12:31:39;;;;;;;16.45;4.78;;;15.80;99.90;;;;;;5070220;28;20075;-68
2022/10/22 12:34:05;;;;;;;12.18;4.78;;;15.90;99.90;;;;;;5069900;28;20037;-68
2022/10/22 12:36:33;;;;;;;6.95;4.00;;;15.90;99.90;;;;;;5072692;28;20045;-68
2022/10/22 12:39:08;;;;;;;7.78;4.38;;;15.80;99.90;;;;;;5074094;28;20037;-67
2022/10/22 12:41:36;;;;;;;8.95;4.55;;;15.90;99.90;;;;;;5075144;28;20121;-68
2022/10/22 12:44:03;;;;;;;8.38;3.55;;;15.80;99.90;;;;;;5075263;28;20167;-67
2022/10/22 12:46:32;;;;;;;9.77;3.83;;;15.80;99.90;;;;;;5075046;28;20036;-68
2022/10/22 12:49:04;;;;;;;9.82;3.90;;;15.80;99.90;;;;;;5075282;28;20060;-67
2022/10/22 12:51:30;;;;;;;9.68;3.53;;;15.80;99.90;;;;;;5074056;28;20464;-67
2022/10/22 12:54:00;;;;;;;6.13;3.45;;;15.80;99.90;;;;;;5073757;28;20526;-67
2022/10/22 12:56:30;;;;;;;8.98;4.63;;;15.80;99.90;;;;;;5074789;28;20116;-68
2022/10/22 12:59:00;;;;;;;7.75;3.25;;;15.90;99.90;;;;;;5074865;28;20074;-68
2022/10/22 13:01:28;;;;;;;6.53;3.63;;;15.90;99.90;;;;;;5073555;28;20032;-68